createdAt,value
2019-06-15T00:00:05.577Z,23.92
2019-06-15T00:01:05.601Z,24.00
2019-06-15T00:02:05.628Z,23.96
2019-06-15T00:03:05.652Z,23.95
2019-06-15T00:04:05.675Z,23.99
2019-06-15T00:05:05.702Z,23.96
2019-06-15T00:06:05.733Z,23.95
2019-06-15T00:07:05.753Z,24.01
2019-06-15T00:08:05.780Z,23.95
2019-06-15T00:09:05.809Z,23.96
2019-06-15T00:10:05.831Z,23.92
2019-06-15T00:11:05.855Z,23.92
2019-06-15T00:12:05.892Z,23.95
2019-06-15T00:13:05.981Z,23.91
2019-06-15T00:14:05.975Z,23.91
2019-06-15T00:15:06.016Z,23.99
2019-06-15T00:16:06.032Z,23.88
2019-06-15T00:17:06.035Z,23.91
2019-06-15T00:18:06.031Z,23.85
2019-06-15T00:19:06.059Z,23.81
2019-06-15T00:20:06.086Z,23.89
2019-06-15T00:21:06.106Z,23.89
2019-06-15T00:22:06.135Z,23.86
2019-06-15T00:23:06.159Z,23.88
2019-06-15T00:24:06.186Z,23.82
2019-06-15T00:25:06.209Z,23.85
2019-06-15T00:26:06.238Z,23.77
2019-06-15T00:27:06.260Z,23.82
2019-06-15T00:28:06.284Z,23.84
2019-06-15T00:29:06.317Z,23.82
2019-06-15T00:30:06.336Z,23.79
2019-06-15T00:31:06.361Z,23.82
2019-06-15T00:32:06.384Z,23.81
2019-06-15T00:33:06.411Z,23.81
2019-06-15T00:34:06.437Z,23.84
2019-06-15T00:35:06.464Z,23.77
2019-06-15T00:36:06.487Z,23.79
2019-06-15T00:37:06.515Z,23.74
2019-06-15T00:38:06.542Z,23.74
2019-06-15T00:39:06.567Z,23.79
2019-06-15T00:40:06.590Z,23.77
2019-06-15T00:41:06.614Z,23.76
2019-06-15T00:42:06.644Z,23.79
2019-06-15T00:43:06.666Z,23.76
2019-06-15T00:44:06.694Z,23.76
2019-06-15T00:45:06.715Z,23.81
2019-06-15T00:46:06.753Z,23.82
2019-06-15T00:47:06.770Z,23.85
2019-06-15T00:48:06.792Z,23.84
2019-06-15T00:49:06.817Z,23.82
2019-06-15T00:50:06.843Z,23.79
2019-06-15T00:51:06.866Z,23.86
2019-06-15T00:52:06.890Z,23.81
2019-06-15T00:53:06.916Z,23.81
2019-06-15T00:54:06.943Z,23.81
2019-06-15T00:55:06.976Z,23.74
2019-06-15T00:56:06.995Z,23.81
2019-06-15T00:57:07.023Z,23.79
2019-06-15T00:58:07.048Z,23.77
2019-06-15T00:59:07.070Z,23.82
2019-06-15T01:00:07.095Z,23.76
2019-06-15T01:01:07.121Z,23.82
2019-06-15T01:02:07.146Z,23.74
2019-06-15T01:03:07.170Z,23.73
2019-06-15T01:04:07.199Z,23.77
2019-06-15T01:05:07.219Z,23.66
2019-06-15T01:06:07.249Z,23.66
2019-06-15T01:07:07.271Z,23.73
2019-06-15T01:08:07.298Z,23.67
2019-06-15T01:09:07.321Z,23.59
2019-06-15T01:10:07.345Z,23.52
2019-06-15T01:11:07.372Z,23.63
2019-06-15T01:12:07.403Z,23.56
2019-06-15T01:13:07.426Z,23.59
2019-06-15T01:14:07.447Z,23.54
2019-06-15T01:15:07.473Z,23.56
2019-06-15T01:16:07.501Z,23.54
2019-06-15T01:17:07.519Z,23.55
2019-06-15T01:18:07.547Z,23.54
2019-06-15T01:19:07.578Z,23.48
2019-06-15T01:20:07.604Z,23.51
2019-06-15T01:21:07.618Z,23.54
2019-06-15T01:22:07.645Z,23.56
2019-06-15T01:23:07.675Z,23.56
2019-06-15T01:24:07.700Z,23.54
2019-06-15T01:25:07.723Z,23.54
2019-06-15T01:26:07.749Z,23.52
2019-06-15T01:27:07.773Z,23.47
2019-06-15T01:28:07.878Z,23.52
2019-06-15T01:29:07.878Z,23.48
2019-06-15T01:30:07.886Z,23.54
2019-06-15T01:31:07.930Z,23.56
2019-06-15T01:32:07.938Z,23.48
2019-06-15T01:33:07.930Z,23.45
2019-06-15T01:34:07.949Z,23.48
2019-06-15T01:35:07.975Z,23.44
2019-06-15T01:36:08.001Z,23.42
2019-06-15T01:37:08.023Z,23.47
2019-06-15T01:38:08.049Z,23.42
2019-06-15T01:39:08.074Z,23.44
2019-06-15T01:40:08.100Z,23.47
2019-06-15T01:41:08.121Z,23.42
2019-06-15T01:42:08.149Z,23.40
2019-06-15T01:43:08.175Z,23.42
2019-06-15T01:44:08.207Z,23.42
2019-06-15T01:45:08.221Z,23.40
2019-06-15T01:46:08.251Z,23.40
2019-06-15T01:47:08.276Z,23.42
2019-06-15T01:48:08.301Z,23.44
2019-06-15T01:49:08.351Z,23.48
2019-06-15T01:50:08.350Z,23.44
2019-06-15T01:51:08.375Z,23.49
2019-06-15T01:52:08.405Z,23.47
2019-06-15T01:53:08.425Z,23.54
2019-06-15T01:54:08.449Z,23.45
2019-06-15T01:55:19.909Z,23.49
2019-06-15T01:56:08.501Z,23.49
2019-06-15T01:57:08.526Z,23.48
2019-06-15T01:58:08.551Z,23.47
2019-06-15T01:59:08.577Z,23.47
2019-06-15T02:00:08.602Z,23.42
2019-06-15T02:01:08.623Z,23.45
2019-06-15T02:02:08.649Z,23.45
2019-06-15T02:03:08.678Z,23.44
2019-06-15T02:04:08.701Z,23.40
2019-06-15T02:05:08.725Z,23.45
2019-06-15T02:06:08.750Z,23.39
2019-06-15T02:07:08.774Z,23.40
2019-06-15T02:08:08.802Z,23.42
2019-06-15T02:09:08.826Z,23.42
2019-06-15T02:10:08.850Z,23.42
2019-06-15T02:11:08.878Z,23.40
2019-06-15T02:12:08.907Z,23.44
2019-06-15T02:13:08.973Z,23.44
2019-06-15T02:14:08.954Z,23.51
2019-06-15T02:15:08.978Z,23.48
2019-06-15T02:16:09.000Z,23.49
2019-06-15T02:17:09.030Z,23.55
2019-06-15T02:18:09.047Z,23.49
2019-06-15T02:19:09.076Z,23.56
2019-06-15T02:20:09.099Z,23.45
2019-06-15T02:21:09.120Z,23.49
2019-06-15T02:22:09.147Z,23.51
2019-06-15T02:23:09.173Z,23.51
2019-06-15T02:24:09.200Z,23.45
2019-06-15T02:25:09.221Z,23.52
2019-06-15T02:26:09.250Z,23.55
2019-06-15T02:27:09.279Z,23.45
2019-06-15T02:28:09.299Z,23.54
2019-06-15T02:29:09.323Z,23.51
2019-06-15T02:30:09.349Z,23.51
2019-06-15T02:31:09.385Z,23.47
2019-06-15T02:32:09.400Z,23.49
2019-06-15T02:33:09.429Z,23.49
2019-06-15T02:34:09.451Z,23.49
2019-06-15T02:35:09.475Z,23.54
2019-06-15T02:36:09.500Z,23.52
2019-06-15T02:37:09.523Z,23.51
2019-06-15T02:38:09.548Z,23.48
2019-06-15T02:39:09.570Z,23.48
2019-06-15T02:40:09.598Z,23.45
2019-06-15T02:41:09.623Z,23.44
2019-06-15T02:42:09.646Z,23.40
2019-06-15T02:43:09.675Z,23.40
2019-06-15T02:44:09.709Z,23.45
2019-06-15T02:45:09.791Z,23.32
2019-06-15T02:46:09.785Z,23.32
2019-06-15T02:47:09.854Z,23.40
2019-06-15T02:48:09.838Z,23.36
2019-06-15T02:49:09.845Z,23.37
2019-06-15T02:50:09.847Z,23.34
2019-06-15T02:51:09.872Z,23.29
2019-06-15T02:52:09.942Z,23.42
2019-06-15T02:53:09.928Z,23.34
2019-06-15T02:54:09.946Z,23.39
2019-06-15T02:55:09.970Z,23.42
2019-06-15T02:56:09.996Z,23.36
2019-06-15T02:57:10.022Z,23.34
2019-06-15T02:58:10.046Z,23.39
2019-06-15T02:59:10.074Z,23.37
2019-06-15T03:00:10.093Z,23.33
2019-06-15T03:01:10.121Z,23.32
2019-06-15T03:02:10.146Z,23.23
2019-06-15T03:03:10.172Z,23.36
2019-06-15T03:04:10.195Z,23.28
2019-06-15T03:05:10.253Z,23.25
2019-06-15T03:06:10.245Z,23.26
2019-06-15T03:07:10.271Z,23.20
2019-06-15T03:08:10.323Z,23.17
2019-06-15T03:09:10.319Z,23.20
2019-06-15T03:10:10.346Z,23.18
2019-06-15T03:11:10.371Z,23.20
2019-06-15T03:12:10.396Z,23.21
2019-06-15T03:13:10.419Z,23.18
2019-06-15T03:14:10.444Z,23.21
2019-06-15T03:15:10.466Z,23.17
2019-06-15T03:16:10.493Z,23.18
2019-06-15T03:17:10.517Z,23.18
2019-06-15T03:18:10.546Z,23.20
2019-06-15T03:19:10.568Z,23.17
2019-06-15T03:20:10.592Z,23.20
2019-06-15T03:21:10.620Z,23.13
2019-06-15T03:22:10.645Z,23.10
2019-06-15T03:23:10.665Z,23.20
2019-06-15T03:24:10.696Z,23.16
2019-06-15T03:25:10.718Z,23.07
2019-06-15T03:26:10.741Z,23.04
2019-06-15T03:27:10.770Z,23.02
2019-06-15T03:28:10.791Z,23.06
2019-06-15T03:29:10.819Z,22.99
2019-06-15T03:30:10.843Z,23.07
2019-06-15T03:31:10.869Z,22.99
2019-06-15T03:32:10.891Z,23.01
2019-06-15T03:33:10.917Z,22.98
2019-06-15T03:34:10.968Z,22.93
2019-06-15T03:35:10.969Z,23.01
2019-06-15T03:36:10.992Z,22.95
2019-06-15T03:37:11.013Z,22.95
2019-06-15T03:38:11.040Z,22.98
2019-06-15T03:39:11.063Z,22.92
2019-06-15T03:40:11.092Z,22.93
2019-06-15T03:41:11.112Z,22.98
2019-06-15T03:42:11.139Z,22.95
2019-06-15T03:43:11.162Z,22.95
2019-06-15T03:44:11.186Z,22.93
2019-06-15T03:45:11.213Z,22.91
2019-06-15T03:46:11.236Z,22.91
2019-06-15T03:47:11.268Z,22.88
2019-06-15T03:48:11.298Z,22.88
2019-06-15T03:49:11.315Z,22.93
2019-06-15T03:50:11.335Z,22.88
2019-06-15T03:51:11.360Z,22.76
2019-06-15T03:52:11.384Z,22.81
2019-06-15T03:53:11.409Z,22.88
2019-06-15T03:54:11.432Z,22.81
2019-06-15T03:55:11.459Z,22.80
2019-06-15T03:56:21.180Z,22.81
2019-06-15T03:57:11.506Z,22.77
2019-06-15T03:58:11.530Z,22.81
2019-06-15T03:59:11.556Z,22.77
2019-06-15T04:00:11.585Z,22.83
2019-06-15T04:01:11.632Z,22.81
2019-06-15T04:02:11.692Z,22.77
2019-06-15T04:03:11.709Z,22.80
2019-06-15T04:04:11.749Z,22.88
2019-06-15T04:05:11.751Z,22.84
2019-06-15T04:06:11.751Z,22.95
2019-06-15T04:07:11.751Z,22.93
2019-06-15T04:08:11.778Z,22.92
2019-06-15T04:09:11.802Z,22.93
2019-06-15T04:10:11.827Z,22.96
2019-06-15T04:11:11.852Z,22.95
2019-06-15T04:12:11.877Z,22.91
2019-06-15T04:13:11.899Z,22.93
2019-06-15T04:14:11.925Z,22.93
2019-06-15T04:15:11.949Z,22.99
2019-06-15T04:16:11.979Z,23.06
2019-06-15T04:17:12.004Z,23.01
2019-06-15T04:18:12.022Z,23.01
2019-06-15T04:19:12.049Z,23.04
2019-06-15T04:20:12.077Z,23.01
2019-06-15T04:21:12.101Z,23.08
2019-06-15T04:22:12.125Z,23.14
2019-06-15T04:23:12.145Z,23.14
2019-06-15T04:24:12.171Z,23.16
2019-06-15T04:25:12.205Z,23.14
2019-06-15T04:26:12.221Z,23.16
2019-06-15T04:27:12.246Z,23.25
2019-06-15T04:28:12.272Z,23.21
2019-06-15T04:29:12.296Z,23.21
2019-06-15T04:30:12.321Z,23.21
2019-06-15T04:31:12.347Z,23.17
2019-06-15T04:32:12.369Z,23.20
2019-06-15T04:33:12.430Z,23.18
2019-06-15T04:34:12.421Z,23.21
2019-06-15T04:35:12.444Z,23.18
2019-06-15T04:36:12.470Z,23.20
2019-06-15T04:37:12.495Z,23.23
2019-06-15T04:38:12.518Z,23.34
2019-06-15T04:39:12.544Z,23.39
2019-06-15T04:40:12.571Z,23.39
2019-06-15T04:41:12.595Z,23.36
2019-06-15T04:42:12.620Z,23.40
2019-06-15T04:43:12.646Z,23.42
2019-06-15T04:44:12.672Z,23.48
2019-06-15T04:45:12.694Z,23.48
2019-06-15T04:46:12.721Z,23.56
2019-06-15T04:47:12.747Z,23.62
2019-06-15T04:48:12.826Z,23.54
2019-06-15T04:49:12.795Z,23.66
2019-06-15T04:50:12.820Z,23.67
2019-06-15T04:51:12.882Z,23.77
2019-06-15T04:52:12.898Z,23.81
2019-06-15T04:53:14.834Z,23.76
2019-06-15T04:54:12.923Z,23.86
2019-06-15T04:55:12.952Z,23.94
2019-06-15T04:56:12.976Z,23.88
2019-06-15T04:57:12.999Z,23.95
2019-06-15T04:58:13.033Z,23.91
2019-06-15T04:59:13.051Z,23.99
2019-06-15T05:00:13.076Z,23.96
2019-06-15T05:01:13.099Z,24.09
2019-06-15T05:02:13.126Z,24.03
2019-06-15T05:03:13.155Z,24.03
2019-06-15T05:04:13.186Z,24.03
2019-06-15T05:05:13.203Z,24.03
2019-06-15T05:06:13.233Z,24.14
2019-06-15T05:07:13.254Z,24.11
2019-06-15T05:08:13.291Z,24.14
2019-06-15T05:09:13.310Z,24.11
2019-06-15T05:10:13.332Z,24.06
2019-06-15T05:11:13.363Z,24.09
2019-06-15T05:12:13.387Z,24.09
2019-06-15T05:13:13.409Z,24.10
2019-06-15T05:14:13.436Z,24.14
2019-06-15T05:15:13.463Z,24.11
2019-06-15T05:16:13.486Z,24.10
2019-06-15T05:17:13.522Z,24.07
2019-06-15T05:18:13.599Z,24.16
2019-06-15T05:19:13.607Z,24.24
2019-06-15T05:20:13.652Z,24.22
2019-06-15T05:21:13.659Z,24.25
2019-06-15T05:22:13.658Z,24.25
2019-06-15T05:23:13.667Z,24.41
2019-06-15T05:24:13.693Z,24.41
2019-06-15T05:25:13.716Z,24.58
2019-06-15T05:26:13.744Z,24.56
2019-06-15T05:27:13.776Z,24.59
2019-06-15T05:28:13.797Z,24.68
2019-06-15T05:29:13.821Z,24.69
2019-06-15T05:30:13.851Z,24.63
2019-06-15T05:31:13.879Z,24.68
2019-06-15T05:32:13.904Z,24.65
2019-06-15T05:33:13.934Z,24.65
2019-06-15T05:34:13.954Z,24.63
2019-06-15T05:35:13.981Z,24.62
2019-06-15T05:36:14.007Z,24.81
2019-06-15T05:37:14.032Z,24.84
2019-06-15T05:38:14.060Z,24.78
2019-06-15T05:39:14.086Z,24.77
2019-06-15T05:40:14.113Z,24.78
2019-06-15T05:41:15.788Z,24.77
2019-06-15T05:42:14.167Z,24.85
2019-06-15T05:43:14.191Z,24.92
2019-06-15T05:44:14.220Z,24.94
2019-06-15T05:45:14.254Z,24.99
2019-06-15T05:46:14.269Z,25.01
2019-06-15T05:47:14.295Z,25.04
2019-06-15T05:48:14.327Z,25.07
2019-06-15T05:49:14.351Z,25.11
2019-06-15T05:50:14.380Z,25.12
2019-06-15T05:51:14.425Z,25.15
2019-06-15T05:52:14.432Z,25.16
2019-06-15T05:53:14.457Z,25.16
2019-06-15T05:54:14.483Z,25.18
2019-06-15T05:55:14.510Z,25.19
2019-06-15T05:56:14.538Z,25.24
2019-06-15T05:57:21.551Z,25.25
2019-06-15T05:58:14.589Z,25.30
2019-06-15T05:59:14.617Z,25.29
2019-06-15T06:00:14.644Z,25.31
2019-06-15T06:01:14.670Z,25.31
2019-06-15T06:02:14.697Z,25.33
2019-06-15T06:03:14.724Z,25.33
2019-06-15T06:04:14.764Z,25.41
2019-06-15T06:05:14.777Z,25.34
2019-06-15T06:06:14.807Z,25.43
2019-06-15T06:07:14.832Z,25.34
2019-06-15T06:08:14.860Z,25.37
2019-06-15T06:09:14.890Z,25.56
2019-06-15T06:10:14.912Z,25.67
2019-06-15T06:11:14.957Z,25.55
2019-06-15T06:12:15.005Z,25.67
2019-06-15T06:13:14.991Z,25.70
2019-06-15T06:14:15.021Z,25.77
2019-06-15T06:15:15.046Z,25.76
2019-06-15T06:16:15.080Z,25.86
2019-06-15T06:17:15.102Z,25.85
2019-06-15T06:18:15.131Z,25.96
2019-06-15T06:19:15.156Z,26.10
2019-06-15T06:20:15.185Z,26.16
2019-06-15T06:21:15.212Z,26.06
2019-06-15T06:22:15.242Z,26.19
2019-06-15T06:23:15.265Z,26.30
2019-06-15T06:24:15.296Z,26.33
2019-06-15T06:25:15.323Z,26.45
2019-06-15T06:26:15.388Z,26.46
2019-06-15T06:27:15.431Z,26.48
2019-06-15T06:28:15.411Z,26.55
2019-06-15T06:29:15.494Z,26.64
2019-06-15T06:30:15.506Z,26.68
2019-06-15T06:31:15.517Z,26.76
2019-06-15T06:32:15.570Z,26.78
2019-06-15T06:33:15.572Z,26.76
2019-06-15T06:34:15.576Z,26.82
2019-06-15T06:35:15.606Z,26.86
2019-06-15T06:36:15.633Z,26.96
2019-06-15T06:37:15.662Z,27.03
2019-06-15T06:38:15.716Z,27.04
2019-06-15T06:39:15.718Z,27.07
2019-06-15T06:40:15.751Z,27.22
2019-06-15T06:41:15.778Z,27.22
2019-06-15T06:42:15.806Z,27.25
2019-06-15T06:43:15.833Z,27.25
2019-06-15T06:44:15.861Z,27.38
2019-06-15T06:45:15.892Z,27.45
2019-06-15T06:46:15.922Z,27.53
2019-06-15T06:47:16.003Z,27.66
2019-06-15T06:48:15.981Z,27.60
2019-06-15T06:49:16.007Z,27.79
2019-06-15T06:50:16.032Z,27.86
2019-06-15T06:51:16.065Z,28.10
2019-06-15T06:52:16.093Z,28.25
2019-06-15T06:53:16.125Z,28.45
2019-06-15T06:54:16.151Z,28.68
2019-06-15T06:55:16.184Z,28.67
2019-06-15T06:56:16.216Z,28.92
2019-06-15T06:57:16.247Z,29.07
2019-06-15T06:58:16.278Z,29.09
2019-06-15T06:59:16.308Z,29.32
2019-06-15T07:00:16.340Z,29.35
2019-06-15T07:01:16.370Z,29.49
2019-06-15T07:02:16.401Z,29.57
2019-06-15T07:03:16.431Z,29.57
2019-06-15T07:04:16.465Z,29.62
2019-06-15T07:05:16.497Z,29.59
2019-06-15T07:06:16.528Z,29.62
2019-06-15T07:07:16.560Z,29.55
2019-06-15T07:08:16.594Z,29.62
2019-06-15T07:09:16.621Z,29.61
2019-06-15T07:10:16.652Z,29.68
2019-06-15T07:11:16.684Z,29.65
2019-06-15T07:12:16.717Z,29.62
2019-06-15T07:13:16.748Z,29.67
2019-06-15T07:14:16.777Z,29.71
2019-06-15T07:15:16.810Z,29.73
2019-06-15T07:16:16.841Z,29.71
2019-06-15T07:17:16.869Z,29.68
2019-06-15T07:18:16.901Z,29.76
2019-06-15T07:19:16.931Z,29.76
2019-06-15T07:20:16.965Z,29.61
2019-06-15T07:21:16.995Z,29.50
2019-06-15T07:22:17.033Z,29.47
2019-06-15T07:23:17.055Z,29.31
2019-06-15T07:24:17.098Z,29.30
2019-06-15T07:25:17.117Z,29.27
2019-06-15T07:26:17.148Z,29.28
2019-06-15T07:27:17.177Z,29.16
2019-06-15T07:28:17.209Z,29.09
2019-06-15T07:29:17.286Z,29.12
2019-06-15T07:30:17.276Z,29.12
2019-06-15T07:31:17.300Z,29.12
2019-06-15T07:32:17.329Z,29.03
2019-06-15T07:33:17.437Z,29.00
2019-06-15T07:34:17.447Z,28.90
2019-06-15T07:35:17.449Z,28.92
2019-06-15T07:36:17.495Z,28.87
2019-06-15T07:37:17.490Z,28.78
2019-06-15T07:38:17.507Z,28.78
2019-06-15T07:39:17.538Z,28.72
2019-06-15T07:40:17.568Z,28.78
2019-06-15T07:41:17.597Z,28.74
2019-06-15T07:42:17.633Z,28.78
2019-06-15T07:43:17.657Z,28.80
2019-06-15T07:44:17.690Z,28.87
2019-06-15T07:45:17.715Z,28.89
2019-06-15T07:46:17.771Z,28.67
2019-06-15T07:47:17.777Z,28.71
2019-06-15T07:48:17.809Z,28.65
2019-06-15T07:49:17.835Z,28.74
2019-06-15T07:50:17.863Z,28.74
2019-06-15T07:51:17.901Z,28.74
2019-06-15T07:52:17.929Z,28.78
2019-06-15T07:53:17.955Z,28.96
2019-06-15T07:54:17.985Z,29.10
2019-06-15T07:55:18.015Z,29.18
2019-06-15T07:56:18.046Z,29.25
2019-06-15T07:57:18.077Z,29.31
2019-06-15T07:58:24.480Z,29.52
2019-06-15T07:59:18.141Z,29.64
2019-06-15T08:00:18.179Z,29.71
2019-06-15T08:01:18.215Z,29.92
2019-06-15T08:02:18.254Z,30.08
2019-06-15T08:03:18.273Z,30.24
2019-06-15T08:04:18.305Z,30.33
2019-06-15T08:05:18.340Z,30.44
2019-06-15T08:06:18.373Z,30.69
2019-06-15T08:07:18.402Z,30.74
2019-06-15T08:08:18.440Z,30.89
2019-06-15T08:09:18.469Z,30.96
2019-06-15T08:10:18.501Z,31.07
2019-06-15T08:11:18.535Z,31.07
2019-06-15T08:12:18.573Z,31.17
2019-06-15T08:13:18.606Z,31.22
2019-06-15T08:14:18.641Z,31.20
2019-06-15T08:15:18.675Z,31.20
2019-06-15T08:16:18.706Z,31.22
2019-06-15T08:17:18.742Z,31.33
2019-06-15T08:18:18.775Z,31.32
2019-06-15T08:19:18.807Z,31.28
2019-06-15T08:20:18.839Z,31.36
2019-06-15T08:21:18.874Z,31.39
2019-06-15T08:22:18.914Z,31.41
2019-06-15T08:23:18.941Z,31.51
2019-06-15T08:24:18.980Z,31.59
2019-06-15T08:25:19.047Z,31.70
2019-06-15T08:26:19.040Z,31.60
2019-06-15T08:27:19.078Z,31.72
2019-06-15T08:28:19.114Z,31.79
2019-06-15T08:29:19.146Z,31.79
2019-06-15T08:30:19.176Z,31.74
2019-06-15T08:31:19.212Z,31.77
2019-06-15T08:32:19.247Z,31.72
2019-06-15T08:33:19.327Z,31.67
2019-06-15T08:34:19.363Z,31.64
2019-06-15T08:35:19.382Z,31.69
2019-06-15T08:36:19.425Z,31.72
2019-06-15T08:37:19.429Z,31.77
2019-06-15T08:38:19.443Z,31.79
2019-06-15T08:39:19.478Z,31.74
2019-06-15T08:40:19.512Z,31.89
2019-06-15T08:41:19.544Z,31.89
2019-06-15T08:42:19.578Z,32.01
2019-06-15T08:43:19.615Z,31.89
2019-06-15T08:44:19.647Z,31.98
2019-06-15T08:45:19.682Z,32.01
2019-06-15T08:46:19.715Z,32.12
2019-06-15T08:47:19.747Z,32.20
2019-06-15T08:48:19.782Z,32.31
2019-06-15T08:49:19.827Z,32.34
2019-06-15T08:50:19.853Z,32.45
2019-06-15T08:51:19.893Z,32.61
2019-06-15T08:52:19.922Z,32.57
2019-06-15T08:53:19.957Z,32.66
2019-06-15T08:54:19.992Z,32.85
2019-06-15T08:55:20.031Z,32.91
2019-06-15T08:56:20.064Z,32.98
2019-06-15T08:57:20.103Z,33.08
2019-06-15T08:58:20.134Z,33.16
2019-06-15T08:59:20.174Z,33.20
2019-06-15T09:00:20.212Z,33.36
2019-06-15T09:01:20.310Z,33.39
2019-06-15T09:02:20.285Z,33.47
2019-06-15T09:03:20.324Z,33.66
2019-06-15T09:04:20.357Z,33.79
2019-06-15T09:05:20.413Z,33.88
2019-06-15T09:06:20.436Z,33.94
2019-06-15T09:07:20.472Z,34.07
2019-06-15T09:08:20.508Z,34.18
2019-06-15T09:09:20.547Z,34.38
2019-06-15T09:10:20.583Z,34.41
2019-06-15T09:11:20.622Z,34.51
2019-06-15T09:12:20.658Z,34.60
2019-06-15T09:13:20.702Z,34.70
2019-06-15T09:14:20.735Z,34.70
2019-06-15T09:15:20.777Z,34.85
2019-06-15T09:16:20.810Z,34.88
2019-06-15T09:17:20.851Z,35.00
2019-06-15T09:18:20.884Z,35.05
2019-06-15T09:19:20.946Z,35.15
2019-06-15T09:20:20.961Z,35.18
2019-06-15T09:21:21.002Z,35.18
2019-06-15T09:22:21.039Z,35.32
2019-06-15T09:23:21.076Z,35.38
2019-06-15T09:24:21.118Z,35.42
2019-06-15T09:25:21.153Z,35.52
2019-06-15T09:26:21.192Z,35.68
2019-06-15T09:27:21.293Z,35.64
2019-06-15T09:28:21.298Z,35.68
2019-06-15T09:29:21.378Z,35.81
2019-06-15T09:30:21.369Z,35.84
2019-06-15T09:31:21.387Z,35.96
2019-06-15T09:32:21.426Z,36.16
2019-06-15T09:33:21.463Z,36.24
2019-06-15T09:34:21.516Z,36.26
2019-06-15T09:35:21.543Z,36.25
2019-06-15T09:36:21.585Z,36.31
2019-06-15T09:37:21.624Z,36.32
2019-06-15T09:38:21.665Z,36.33
2019-06-15T09:39:21.702Z,36.47
2019-06-15T09:40:21.751Z,36.44
2019-06-15T09:41:21.791Z,36.54
2019-06-15T09:42:21.821Z,36.62
2019-06-15T09:43:21.861Z,36.70
2019-06-15T09:44:21.902Z,36.78
2019-06-15T09:45:21.941Z,36.97
2019-06-15T09:46:21.982Z,37.03
2019-06-15T09:47:22.024Z,37.11
2019-06-15T09:48:22.062Z,37.25
2019-06-15T09:49:22.102Z,37.21
2019-06-15T09:50:22.141Z,37.23
2019-06-15T09:51:22.181Z,37.19
2019-06-15T09:52:22.222Z,37.22
2019-06-15T09:53:22.259Z,37.26
2019-06-15T09:54:22.303Z,37.19
2019-06-15T09:55:22.341Z,37.23
2019-06-15T09:56:22.385Z,37.18
2019-06-15T09:57:22.422Z,37.41
2019-06-15T09:58:22.462Z,37.57
2019-06-15T09:59:25.903Z,37.54
2019-06-15T10:00:22.543Z,37.60
2019-06-15T10:01:22.581Z,37.50
2019-06-15T10:02:22.622Z,37.68
2019-06-15T10:03:22.666Z,37.64
2019-06-15T10:04:22.707Z,37.78
2019-06-15T10:05:22.741Z,37.88
2019-06-15T10:06:22.785Z,37.95
2019-06-15T10:07:22.823Z,38.10
2019-06-15T10:08:22.866Z,38.12
2019-06-15T10:09:22.900Z,38.10
2019-06-15T10:10:22.942Z,38.19
2019-06-15T10:11:22.980Z,38.27
2019-06-15T10:12:23.020Z,38.27
2019-06-15T10:13:23.058Z,38.20
2019-06-15T10:14:23.098Z,38.20
2019-06-15T10:15:23.144Z,38.19
2019-06-15T10:16:23.246Z,38.17
2019-06-15T10:17:23.261Z,38.16
2019-06-15T10:18:23.302Z,38.19
2019-06-15T10:19:23.301Z,38.20
2019-06-15T10:20:23.339Z,38.16
2019-06-15T10:21:23.372Z,38.10
2019-06-15T10:22:23.411Z,38.13
2019-06-15T10:23:23.453Z,38.02
2019-06-15T10:24:23.494Z,37.95
2019-06-15T10:25:23.529Z,37.92
2019-06-15T10:26:23.568Z,37.86
2019-06-15T10:27:23.606Z,37.73
2019-06-15T10:28:23.649Z,37.68
2019-06-15T10:29:23.682Z,37.66
2019-06-15T10:30:23.720Z,37.45
2019-06-15T10:31:23.757Z,37.47
2019-06-15T10:32:23.797Z,37.29
2019-06-15T10:33:23.834Z,37.25
2019-06-15T10:34:23.875Z,37.19
2019-06-15T10:35:23.907Z,37.10
2019-06-15T10:36:23.946Z,37.01
2019-06-15T10:37:23.989Z,36.84
2019-06-15T10:38:24.019Z,36.72
2019-06-15T10:39:24.053Z,36.73
2019-06-15T10:40:24.094Z,36.62
2019-06-15T10:41:24.131Z,36.55
2019-06-15T10:42:24.170Z,36.41
2019-06-15T10:43:24.214Z,36.33
2019-06-15T10:44:24.283Z,36.29
2019-06-15T10:45:24.279Z,36.13
2019-06-15T10:46:24.311Z,36.08
2019-06-15T10:47:24.346Z,36.00
2019-06-15T10:48:24.384Z,35.91
2019-06-15T10:49:24.417Z,35.87
2019-06-15T10:50:24.453Z,35.79
2019-06-15T10:51:24.490Z,35.79
2019-06-15T10:52:24.526Z,35.82
2019-06-15T10:53:24.560Z,35.72
2019-06-15T10:54:24.596Z,35.74
2019-06-15T10:55:24.630Z,35.76
2019-06-15T10:56:24.677Z,35.61
2019-06-15T10:57:24.700Z,35.59
2019-06-15T10:58:24.734Z,35.49
2019-06-15T10:59:24.771Z,35.31
2019-06-15T11:00:24.805Z,35.38
2019-06-15T11:01:24.836Z,35.31
2019-06-15T11:02:24.874Z,35.30
2019-06-15T11:03:24.910Z,35.23
2019-06-15T11:04:24.944Z,35.18
2019-06-15T11:05:24.984Z,35.19
2019-06-15T11:06:25.012Z,35.16
2019-06-15T11:07:25.047Z,35.16
2019-06-15T11:08:25.088Z,35.18
2019-06-15T11:09:25.180Z,35.04
2019-06-15T11:10:25.175Z,35.08
2019-06-15T11:11:25.230Z,35.01
2019-06-15T11:12:25.237Z,35.00
2019-06-15T11:13:25.256Z,35.03
2019-06-15T11:14:25.287Z,34.98
2019-06-15T11:15:25.322Z,35.01
2019-06-15T11:16:25.356Z,35.04
2019-06-15T11:17:25.387Z,34.97
2019-06-15T11:18:25.434Z,34.91
2019-06-15T11:19:25.465Z,34.91
2019-06-15T11:20:25.491Z,34.88
2019-06-15T11:21:25.526Z,34.89
2019-06-15T11:22:25.560Z,34.89
2019-06-15T11:23:25.594Z,34.85
2019-06-15T11:24:25.627Z,34.82
2019-06-15T11:25:25.666Z,34.81
2019-06-15T11:26:25.723Z,34.81
2019-06-15T11:27:25.817Z,34.85
2019-06-15T11:28:25.765Z,34.88
2019-06-15T11:29:25.799Z,34.93
2019-06-15T11:30:25.833Z,34.98
2019-06-15T11:31:25.868Z,35.00
2019-06-15T11:32:25.901Z,35.03
2019-06-15T11:33:25.935Z,35.08
2019-06-15T11:34:25.968Z,35.13
2019-06-15T11:35:26.008Z,35.16
2019-06-15T11:36:26.040Z,35.25
2019-06-15T11:37:26.072Z,35.37
2019-06-15T11:38:26.110Z,35.34
2019-06-15T11:39:26.143Z,35.57
2019-06-15T11:40:26.178Z,35.71
2019-06-15T11:41:26.212Z,35.76
2019-06-15T11:42:26.247Z,35.94
2019-06-15T11:43:26.283Z,35.91
2019-06-15T11:44:26.319Z,35.91
2019-06-15T11:45:26.355Z,36.00
2019-06-15T11:46:26.389Z,36.08
2019-06-15T11:47:26.430Z,36.17
2019-06-15T11:48:26.462Z,36.22
2019-06-15T11:49:26.496Z,36.25
2019-06-15T11:50:26.533Z,36.26
2019-06-15T11:51:26.570Z,36.29
2019-06-15T11:52:26.606Z,36.25
2019-06-15T11:53:26.641Z,36.29
2019-06-15T11:54:26.676Z,36.36
2019-06-15T11:55:38.604Z,36.36
2019-06-15T11:56:26.777Z,36.54
2019-06-15T11:57:26.781Z,36.70
2019-06-15T11:58:26.839Z,36.89
2019-06-15T11:59:26.860Z,37.21
2019-06-15T12:00:31.125Z,37.56
2019-06-15T12:01:26.937Z,37.73
2019-06-15T12:02:26.987Z,38.07
2019-06-15T12:03:27.010Z,38.28
2019-06-15T12:04:27.104Z,38.53
2019-06-15T12:05:27.111Z,38.58
2019-06-15T12:06:27.224Z,38.84
2019-06-15T12:07:27.170Z,39.04
2019-06-15T12:08:27.215Z,39.19
2019-06-15T12:09:27.241Z,39.46
2019-06-15T12:10:27.284Z,39.71
2019-06-15T12:11:27.322Z,39.80
2019-06-15T12:12:27.365Z,40.17
2019-06-15T12:13:27.403Z,40.43
2019-06-15T12:14:27.447Z,40.59
2019-06-15T12:15:27.487Z,40.83
2019-06-15T12:16:27.525Z,40.95
2019-06-15T12:17:27.564Z,41.17
2019-06-15T12:18:27.612Z,41.08
2019-06-15T12:19:27.651Z,41.22
2019-06-15T12:20:27.688Z,41.29
2019-06-15T12:21:27.733Z,41.27
2019-06-15T12:22:27.876Z,41.39
2019-06-15T12:23:27.813Z,41.34
2019-06-15T12:24:27.854Z,41.17
2019-06-15T12:25:27.897Z,41.30
2019-06-15T12:26:27.934Z,41.33
2019-06-15T12:27:27.975Z,41.36
2019-06-15T12:28:28.017Z,41.48
2019-06-15T12:29:28.065Z,41.51
2019-06-15T12:30:28.097Z,41.51
2019-06-15T12:31:28.142Z,41.42
2019-06-15T12:32:28.181Z,41.51
2019-06-15T12:33:28.225Z,41.64
2019-06-15T12:34:28.264Z,41.78
2019-06-15T12:35:28.305Z,42.03
2019-06-15T12:36:28.351Z,42.10
2019-06-15T12:37:28.391Z,42.14
2019-06-15T12:38:28.432Z,42.17
2019-06-15T12:39:28.472Z,42.25
2019-06-15T12:40:28.515Z,42.00
2019-06-15T12:41:28.554Z,42.12
2019-06-15T12:42:28.611Z,42.03
2019-06-15T12:43:28.636Z,42.06
2019-06-15T12:44:28.679Z,42.14
2019-06-15T12:45:28.721Z,42.24
2019-06-15T12:46:28.761Z,42.21
2019-06-15T12:47:28.810Z,42.12
2019-06-15T12:48:28.850Z,42.32
2019-06-15T12:49:28.888Z,42.37
2019-06-15T12:50:28.930Z,42.41
2019-06-15T12:51:29.051Z,42.39
2019-06-15T12:52:29.062Z,42.22